createdAt,value
2022-09-23T00:01:07.457Z,3.28
2022-09-23T00:03:37.241Z,3.33
2022-09-23T00:06:10.802Z,3.20
2022-09-23T00:08:38.977Z,3.75
2022-09-23T00:11:11.471Z,3.47
2022-09-23T00:13:40.158Z,3.05
2022-09-23T00:16:10.926Z,3.03
2022-09-23T00:18:38.535Z,3.80
2022-09-23T00:21:10.883Z,4.32
2022-09-23T00:23:40.547Z,4.00
2022-09-23T00:26:09.050Z,3.35
2022-09-23T00:28:36.295Z,3.97
2022-09-23T00:31:05.593Z,3.37
2022-09-23T00:33:32.733Z,4.00
2022-09-23T00:36:00.839Z,2.90
2022-09-23T00:38:28.599Z,3.28
2022-09-23T00:40:55.576Z,3.40
2022-09-23T00:43:58.008Z,2.75
2022-09-23T00:46:37.183Z,2.90
2022-09-23T00:49:12.093Z,2.80
2022-09-23T00:51:43.791Z,3.35
2022-09-23T00:54:11.029Z,3.30
2022-09-23T00:56:38.895Z,2.97
2022-09-23T00:59:07.987Z,3.37
2022-09-23T01:01:37.392Z,3.28
2022-09-23T01:04:04.745Z,3.30
2022-09-23T01:06:32.931Z,2.83
2022-09-23T01:08:59.922Z,3.65
2022-09-23T01:11:36.052Z,3.42
2022-09-23T01:14:27.895Z,3.25
2022-09-23T01:17:07.348Z,3.15
2022-09-23T01:19:43.686Z,3.00
2022-09-23T01:22:19.137Z,3.30
2022-09-23T01:25:08.457Z,3.47
2022-09-23T01:27:38.230Z,3.45
2022-09-23T01:30:08.516Z,3.72
2022-09-23T01:32:57.779Z,3.28
2022-09-23T01:36:11.734Z,3.45
2022-09-23T01:38:49.323Z,3.58
2022-09-23T01:42:10.524Z,3.17
2022-09-23T01:44:43.741Z,3.50
2022-09-23T01:47:30.900Z,2.83
2022-09-23T01:50:24.477Z,3.28
2022-09-23T01:52:53.463Z,2.90
2022-09-23T01:55:28.274Z,3.35
2022-09-23T01:58:06.937Z,3.10
2022-09-23T02:00:40.666Z,3.55
2022-09-23T02:03:15.415Z,3.25
2022-09-23T02:05:46.530Z,3.50
2022-09-23T02:08:21.164Z,3.45
2022-09-23T02:10:56.160Z,3.22
2022-09-23T02:13:29.007Z,3.67
2022-09-23T02:16:01.237Z,2.87
2022-09-23T02:18:31.980Z,3.20
2022-09-23T02:21:04.197Z,3.10
2022-09-23T02:23:40.849Z,3.05
2022-09-23T02:26:28.611Z,3.30
2022-09-23T02:29:20.759Z,3.03
2022-09-23T02:32:22.023Z,3.05
2022-09-23T02:34:55.334Z,3.22
2022-09-23T02:37:28.744Z,2.65
2022-09-23T02:40:05.353Z,3.22
2022-09-23T02:43:12.745Z,3.12
2022-09-23T02:45:40.116Z,3.28
2022-09-23T02:48:18.666Z,3.60
2022-09-23T02:50:47.790Z,3.30
2022-09-23T02:53:17.898Z,3.03
2022-09-23T02:55:45.702Z,3.92
2022-09-23T02:58:14.092Z,3.90
2022-09-23T03:00:58.603Z,3.55
2022-09-23T03:03:44.352Z,4.18
2022-09-23T03:06:31.732Z,3.75
2022-09-23T03:09:04.796Z,3.62
2022-09-23T03:11:35.350Z,3.50
2022-09-23T03:14:17.717Z,3.90
2022-09-23T03:16:50.826Z,3.70
2022-09-23T03:19:26.191Z,3.95
2022-09-23T03:22:11.779Z,4.15
2022-09-23T03:24:40.198Z,3.90
2022-09-23T03:27:14.670Z,3.42
2022-09-23T03:29:48.122Z,3.50
2022-09-23T03:32:17.484Z,4.20
2022-09-23T03:34:47.284Z,3.58
2022-09-23T03:37:32.701Z,4.03
2022-09-23T03:40:08.264Z,3.97
2022-09-23T03:42:36.565Z,3.75
2022-09-23T03:45:08.319Z,3.92
2022-09-23T03:47:35.627Z,3.80
2022-09-23T03:50:02.635Z,3.95
2022-09-23T03:52:29.970Z,4.20
2022-09-23T03:54:56.975Z,3.83
2022-09-23T03:57:24.284Z,3.28
2022-09-23T03:59:52.367Z,3.78
2022-09-23T04:02:20.515Z,3.67
2022-09-23T04:04:47.860Z,3.70
2022-09-23T04:07:15.571Z,3.58
2022-09-23T04:09:42.622Z,3.70
2022-09-23T04:12:15.056Z,4.00
2022-09-23T04:14:42.397Z,6.10
2022-09-23T04:17:10.000Z,7.00
2022-09-23T04:19:37.244Z,6.22
2022-09-23T04:22:04.787Z,11.07
2022-09-23T04:24:32.159Z,12.30
2022-09-23T04:26:59.826Z,6.00
2022-09-23T04:29:27.214Z,4.37
2022-09-23T04:31:54.886Z,3.87
2022-09-23T04:34:22.101Z,4.30
2022-09-23T04:36:49.344Z,5.03
2022-09-23T04:39:17.712Z,5.47
2022-09-23T04:41:45.344Z,4.80
2022-09-23T04:44:13.370Z,4.22
2022-09-23T04:46:42.167Z,3.83
2022-09-23T04:49:09.190Z,3.40
2022-09-23T04:51:36.475Z,3.92
2022-09-23T04:54:03.895Z,3.30
2022-09-23T04:56:34.146Z,3.92
2022-09-23T04:59:04.462Z,3.78
2022-09-23T05:01:34.450Z,3.45
2022-09-23T05:04:06.587Z,3.78
2022-09-23T05:06:35.389Z,3.30
2022-09-23T05:09:05.098Z,3.45
2022-09-23T05:11:32.297Z,2.85
2022-09-23T05:13:59.969Z,3.03
2022-09-23T05:16:27.325Z,3.10
2022-09-23T05:18:54.700Z,3.17
2022-09-23T05:21:23.892Z,3.53
2022-09-23T05:23:56.568Z,4.12
2022-09-23T05:26:27.578Z,2.70
2022-09-23T05:28:54.688Z,3.33
2022-09-23T05:31:24.160Z,2.85
2022-09-23T05:34:02.479Z,3.00
2022-09-23T05:36:35.566Z,3.00
2022-09-23T05:39:06.503Z,3.08
2022-09-23T05:41:34.472Z,3.35
2022-09-23T05:44:01.841Z,2.60
2022-09-23T05:46:30.515Z,3.67
2022-09-23T05:49:02.059Z,3.42
2022-09-23T05:51:31.917Z,3.15
2022-09-23T05:53:59.946Z,3.12
2022-09-23T05:56:28.524Z,3.37
2022-09-23T05:58:58.115Z,2.87
2022-09-23T06:01:27.995Z,2.85
2022-09-23T06:03:56.732Z,2.90
2022-09-23T06:06:32.031Z,2.60
2022-09-23T06:09:00.375Z,2.78
2022-09-23T06:11:30.355Z,2.67
2022-09-23T06:14:02.050Z,2.67
2022-09-23T06:16:34.846Z,2.62
2022-09-23T06:19:06.226Z,2.33
2022-09-23T06:21:39.118Z,2.70
2022-09-23T06:24:07.340Z,2.78
2022-09-23T06:26:37.563Z,2.80
2022-09-23T06:29:10.134Z,2.90
2022-09-23T06:31:37.929Z,2.45
2022-09-23T06:34:11.800Z,3.22
2022-09-23T06:36:44.389Z,2.55
2022-09-23T06:39:12.067Z,2.95
2022-09-23T06:41:39.449Z,2.62
2022-09-23T06:44:07.405Z,2.25
2022-09-23T06:46:34.523Z,2.72
2022-09-23T06:49:02.853Z,2.92
2022-09-23T06:51:29.829Z,2.75
2022-09-23T06:53:56.850Z,3.22
2022-09-23T06:56:24.803Z,2.85
2022-09-23T06:58:52.362Z,2.80
2022-09-23T07:01:19.938Z,2.80
2022-09-23T07:03:48.437Z,3.08
2022-09-23T07:06:15.850Z,3.17
2022-09-23T07:08:44.969Z,3.10
2022-09-23T07:11:13.360Z,3.25
2022-09-23T07:13:41.989Z,2.95
2022-09-23T07:16:09.898Z,2.65
2022-09-23T07:18:38.537Z,2.85
2022-09-23T07:21:13.689Z,3.00
2022-09-23T07:23:46.032Z,3.70
2022-09-23T07:26:14.576Z,2.95
2022-09-23T07:28:42.034Z,3.05
2022-09-23T07:31:16.748Z,3.15
2022-09-23T07:33:45.347Z,3.53
2022-09-23T07:36:17.237Z,3.53
2022-09-23T07:38:46.021Z,3.72
2022-09-23T07:41:15.944Z,4.10
2022-09-23T07:43:44.128Z,3.22
2022-09-23T07:46:17.511Z,3.28
2022-09-23T07:48:45.927Z,3.77
2022-09-23T07:51:25.419Z,4.07
2022-09-23T07:53:53.730Z,3.70
2022-09-23T07:56:23.299Z,3.65
2022-09-23T07:59:00.177Z,4.32
2022-09-23T08:01:29.573Z,3.47
2022-09-23T08:04:02.076Z,3.47
2022-09-23T08:06:29.079Z,4.72
2022-09-23T08:09:00.913Z,3.83
2022-09-23T08:11:28.464Z,3.22
2022-09-23T08:13:56.039Z,3.50
2022-09-23T08:16:23.417Z,3.67
2022-09-23T08:18:50.603Z,3.50
2022-09-23T08:21:21.743Z,3.17
2022-09-23T08:23:49.131Z,3.78
2022-09-23T08:26:21.512Z,3.65
2022-09-23T08:28:50.660Z,3.70
2022-09-23T08:31:17.730Z,3.42
2022-09-23T08:33:44.771Z,3.25
2022-09-23T08:36:12.057Z,2.90
2022-09-23T08:38:39.022Z,3.80
2022-09-23T08:41:13.975Z,3.55
2022-09-23T08:43:46.730Z,3.08
2022-09-23T08:46:22.228Z,3.20
2022-09-23T08:48:49.953Z,3.45
2022-09-23T08:51:25.632Z,3.70
2022-09-23T08:53:53.152Z,4.37
2022-09-23T08:56:23.313Z,4.53
2022-09-23T08:58:56.449Z,4.85
2022-09-23T09:01:44.484Z,4.40
2022-09-23T09:04:35.560Z,3.53
2022-09-23T09:07:35.597Z,3.47
2022-09-23T09:10:16.664Z,4.18
2022-09-23T09:12:49.968Z,4.12
2022-09-23T09:15:24.621Z,4.00
2022-09-23T09:18:11.324Z,3.87
2022-09-23T09:20:56.953Z,3.70
2022-09-23T09:23:40.981Z,4.00
2022-09-23T09:26:12.240Z,3.95
2022-09-23T09:28:43.829Z,4.50
2022-09-23T09:31:29.316Z,4.25
2022-09-23T09:34:01.020Z,4.93
2022-09-23T09:36:47.232Z,4.60
2022-09-23T09:39:15.282Z,4.30
2022-09-23T09:41:52.193Z,4.40
2022-09-23T09:44:37.164Z,5.18
2022-09-23T09:47:38.149Z,5.57
2022-09-23T09:50:11.555Z,4.93
2022-09-23T09:52:38.501Z,4.70
2022-09-23T09:55:14.649Z,5.22
2022-09-23T09:57:54.834Z,5.12
2022-09-23T10:00:22.065Z,4.65
2022-09-23T10:03:22.360Z,4.80
2022-09-23T10:05:52.330Z,5.60
2022-09-23T10:08:26.921Z,4.68
2022-09-23T10:11:05.306Z,5.50
2022-09-23T10:13:32.915Z,5.57
2022-09-23T10:16:03.017Z,4.85
2022-09-23T10:18:32.726Z,5.00
2022-09-23T10:21:07.311Z,4.53
2022-09-23T10:23:39.497Z,4.43
2022-09-23T10:26:08.291Z,5.50
2022-09-23T10:28:38.333Z,4.45
2022-09-23T10:31:05.563Z,4.30
2022-09-23T10:33:32.955Z,4.20
2022-09-23T10:36:00.068Z,4.32
2022-09-23T10:38:27.119Z,4.15
2022-09-23T10:41:14.143Z,3.65
2022-09-23T10:44:09.858Z,3.45
2022-09-23T10:46:41.231Z,4.30
2022-09-23T10:49:31.079Z,4.03
2022-09-23T10:52:01.685Z,4.15
2022-09-23T10:54:59.913Z,4.40
2022-09-23T10:57:45.322Z,4.62
2022-09-23T11:00:23.168Z,4.32
2022-09-23T11:03:02.831Z,4.22
2022-09-23T11:05:36.036Z,4.70
2022-09-23T11:08:38.657Z,4.62
2022-09-23T11:11:14.931Z,4.87
2022-09-23T11:13:55.730Z,4.78
2022-09-23T11:16:32.522Z,4.60
2022-09-23T11:19:06.721Z,5.18
2022-09-23T11:21:50.219Z,4.25
2022-09-23T11:24:52.055Z,4.37
2022-09-23T11:28:00.340Z,4.45
2022-09-23T11:30:38.630Z,4.43
2022-09-23T11:33:27.081Z,4.62
2022-09-23T11:36:36.605Z,4.55
2022-09-23T11:39:13.155Z,3.87
2022-09-23T11:41:42.024Z,3.60
2022-09-23T11:44:20.011Z,5.10
2022-09-23T11:46:51.695Z,3.90
2022-09-23T11:49:27.591Z,4.03
2022-09-23T11:52:08.788Z,4.20
2022-09-23T11:54:56.013Z,4.15
2022-09-23T11:57:49.636Z,3.15
2022-09-23T12:00:20.328Z,3.10
2022-09-23T12:03:18.498Z,3.50
2022-09-23T12:05:48.366Z,3.25
2022-09-23T12:08:32.724Z,3.10
2022-09-23T12:11:18.721Z,4.12
2022-09-23T12:13:57.999Z,3.60
2022-09-23T12:16:28.015Z,3.87
2022-09-23T12:19:28.550Z,4.25
2022-09-23T12:22:06.959Z,3.78
2022-09-23T12:24:39.994Z,4.30
2022-09-23T12:27:10.975Z,3.72
2022-09-23T12:29:39.951Z,2.80
2022-09-23T12:32:10.091Z,3.42
2022-09-23T12:34:47.968Z,2.95
2022-09-23T12:37:27.681Z,3.17
2022-09-23T12:39:59.520Z,3.22
2022-09-23T12:42:30.908Z,2.42
2022-09-23T12:45:34.686Z,2.42
2022-09-23T12:48:05.029Z,2.05
2022-09-23T12:51:18.517Z,2.00
2022-09-23T12:53:52.689Z,2.30
2022-09-23T12:56:20.038Z,2.30
2022-09-23T12:58:47.264Z,2.17
2022-09-23T13:01:17.231Z,2.10
2022-09-23T13:04:49.186Z,2.20
2022-09-23T13:07:25.172Z,2.42
2022-09-23T13:09:56.040Z,2.60
2022-09-23T13:12:31.165Z,2.10
2022-09-23T13:15:03.293Z,2.30
2022-09-23T13:17:33.297Z,2.75
2022-09-23T13:20:05.808Z,2.35
2022-09-23T13:23:00.003Z,2.40
2022-09-23T13:25:28.965Z,2.05
2022-09-23T13:27:58.819Z,2.15
2022-09-23T13:30:26.933Z,2.00
2022-09-23T13:33:05.671Z,2.45
2022-09-23T13:35:35.055Z,2.25
2022-09-23T13:38:11.134Z,2.58
2022-09-23T13:40:40.339Z,2.58
2022-09-23T13:43:14.404Z,2.62
2022-09-23T13:45:43.227Z,1.90
2022-09-23T13:48:15.380Z,2.00
2022-09-23T13:50:51.366Z,2.05
2022-09-23T13:53:23.804Z,2.30
2022-09-23T13:56:20.943Z,2.10
2022-09-23T13:58:48.825Z,2.17
2022-09-23T14:01:33.032Z,1.90
2022-09-23T14:04:02.178Z,2.20
2022-09-23T14:06:32.384Z,1.90
2022-09-23T14:09:01.241Z,1.85
2022-09-23T14:11:33.639Z,1.83
2022-09-23T14:14:07.161Z,1.90
2022-09-23T14:16:39.747Z,1.90
2022-09-23T14:19:11.413Z,2.05
2022-09-23T14:24:15.281Z,2.10
2022-09-23T14:26:43.783Z,1.90
2022-09-23T14:29:15.120Z,2.03
2022-09-23T14:31:56.775Z,1.83
2022-09-23T14:34:42.617Z,1.55
2022-09-23T14:37:38.112Z,1.83
2022-09-23T14:40:10.543Z,2.00
2022-09-23T14:42:41.150Z,1.92
2022-09-23T14:45:13.924Z,1.87
2022-09-23T14:47:45.218Z,1.97
2022-09-23T14:50:38.927Z,1.65
2022-09-23T14:53:33.869Z,1.85
2022-09-23T14:56:06.850Z,2.12
2022-09-23T14:58:52.247Z,1.87
2022-09-23T15:01:32.031Z,1.58
2022-09-23T15:04:10.582Z,2.22
2022-09-23T15:06:38.360Z,2.75
2022-09-23T15:09:09.773Z,2.42
2022-09-23T15:11:36.941Z,2.60
2022-09-23T15:14:33.158Z,2.80
2022-09-23T15:16:53.259Z,2.85
2022-09-23T15:19:21.171Z,2.55
2022-09-23T15:21:52.681Z,3.55
2022-09-23T15:24:47.332Z,3.30
2022-09-23T15:27:26.268Z,2.87
2022-09-23T15:29:54.164Z,2.90
2022-09-23T15:32:22.079Z,3.00
2022-09-23T15:34:52.358Z,3.05
2022-09-23T15:37:19.935Z,3.28
2022-09-23T15:39:46.931Z,2.87
2022-09-23T15:42:13.943Z,2.50
2022-09-23T15:44:45.175Z,3.12
2022-09-23T15:47:18.970Z,3.22
2022-09-23T15:49:47.212Z,2.80
2022-09-23T15:52:16.363Z,3.08
2022-09-23T15:54:43.830Z,13.82
2022-09-23T15:57:11.314Z,5.95
2022-09-23T15:59:38.406Z,2.83
2022-09-23T16:02:19.144Z,3.70
2022-09-23T16:04:51.454Z,2.90
2022-09-23T16:07:19.726Z,2.60
2022-09-23T16:09:47.061Z,3.37
2022-09-23T16:12:15.751Z,3.08
2022-09-23T16:14:42.816Z,3.10
2022-09-23T16:17:13.161Z,3.17
2022-09-23T16:19:40.191Z,3.55
2022-09-23T16:22:07.933Z,2.97
2022-09-23T16:24:35.260Z,3.45
2022-09-23T16:27:04.934Z,4.95
2022-09-23T16:29:31.928Z,8.35
2022-09-23T16:32:01.096Z,7.15
2022-09-23T16:34:28.246Z,4.45
2022-09-23T16:36:55.375Z,3.70
2022-09-23T16:39:23.005Z,3.28
2022-09-23T16:41:50.001Z,3.42
2022-09-23T16:44:17.040Z,4.47
2022-09-23T16:46:44.380Z,11.90
2022-09-23T16:49:12.167Z,6.57
2022-09-23T16:51:43.086Z,5.05
2022-09-23T16:54:12.490Z,3.53
2022-09-23T16:56:44.691Z,3.58
2022-09-23T16:59:12.989Z,3.05
2022-09-23T17:01:58.716Z,3.60
2022-09-23T17:04:27.606Z,3.17
2022-09-23T17:06:55.985Z,3.30
2022-09-23T17:09:26.829Z,2.87
2022-09-23T17:12:15.882Z,3.83
2022-09-23T17:14:43.777Z,3.20
2022-09-23T17:17:11.077Z,2.95
2022-09-23T17:19:41.267Z,3.22
2022-09-23T17:22:11.091Z,3.17
2022-09-23T17:24:38.359Z,2.70
2022-09-23T17:27:05.330Z,2.58
2022-09-23T17:29:32.324Z,2.90
2022-09-23T17:31:59.660Z,2.75
2022-09-23T17:34:28.831Z,2.42
2022-09-23T17:36:55.794Z,2.55
2022-09-23T17:39:23.097Z,2.65
2022-09-23T17:41:50.077Z,3.30
2022-09-23T17:44:17.638Z,3.60
2022-09-23T17:46:44.992Z,3.25
2022-09-23T17:49:12.159Z,2.92
2022-09-23T17:51:39.523Z,3.58
2022-09-23T17:54:07.134Z,3.55
2022-09-23T17:56:34.207Z,3.50
2022-09-23T17:59:02.004Z,2.50
2022-09-23T18:01:29.458Z,2.30
2022-09-23T18:03:58.937Z,2.62
2022-09-23T18:06:35.467Z,2.37
2022-09-23T18:09:04.932Z,2.25
2022-09-23T18:11:40.054Z,2.30
2022-09-23T18:14:20.876Z,2.25
2022-09-23T18:16:50.120Z,2.08
2022-09-23T18:19:19.526Z,2.28
2022-09-23T18:21:53.560Z,2.47
2022-09-23T18:24:31.713Z,2.00
2022-09-23T18:27:00.064Z,2.00
2022-09-23T18:29:28.126Z,2.30
2022-09-23T18:31:55.291Z,2.22
2022-09-23T18:34:23.611Z,2.25
2022-09-23T18:36:50.952Z,2.08
2022-09-23T18:39:18.027Z,1.67
2022-09-23T18:41:45.087Z,1.70
2022-09-23T18:44:12.393Z,1.75
2022-09-23T18:46:39.418Z,2.35
2022-09-23T18:49:25.350Z,2.00
2022-09-23T18:51:54.608Z,1.70
2022-09-23T18:54:24.720Z,1.80
2022-09-23T18:56:54.548Z,2.35
2022-09-23T18:59:25.142Z,2.03
2022-09-23T19:01:54.975Z,1.80
2022-09-23T19:04:23.933Z,2.20
2022-09-23T19:06:50.971Z,1.70
2022-09-23T19:09:18.432Z,2.22
2022-09-23T19:11:46.331Z,1.77
2022-09-23T19:14:13.626Z,1.70
2022-09-23T19:16:40.989Z,1.95
2022-09-23T19:19:08.652Z,1.77
2022-09-23T19:21:36.368Z,1.77
2022-09-23T19:24:06.065Z,2.00
2022-09-23T19:26:37.572Z,2.15
2022-09-23T19:29:06.147Z,1.92
2022-09-23T19:31:35.832Z,1.75
2022-09-23T19:34:10.246Z,2.05
2022-09-23T19:36:40.128Z,2.05
2022-09-23T19:39:11.337Z,1.62
2022-09-23T19:41:38.729Z,1.70
2022-09-23T19:44:07.504Z,1.67
2022-09-23T19:46:37.174Z,1.85
2022-09-23T19:49:05.914Z,1.92
2022-09-23T19:51:36.979Z,2.00
2022-09-23T19:54:07.123Z,1.80
2022-09-23T19:56:34.533Z,2.12
2022-09-23T19:59:03.118Z,1.95
2022-09-23T20:01:31.901Z,2.25
2022-09-23T20:04:00.276Z,1.92
2022-09-23T20:06:34.271Z,2.00
2022-09-23T20:09:01.890Z,2.08
2022-09-23T20:11:29.365Z,1.92
2022-09-23T20:14:02.198Z,2.45
2022-09-23T20:16:32.694Z,1.90
2022-09-23T20:19:00.335Z,2.12
2022-09-23T20:21:29.504Z,2.62
2022-09-23T20:23:57.855Z,2.47
2022-09-23T20:26:43.813Z,2.55
2022-09-23T20:29:11.354Z,2.10
2022-09-23T20:31:40.449Z,2.08
2022-09-23T20:34:08.312Z,2.10
2022-09-23T20:36:36.051Z,1.80
2022-09-23T20:39:08.800Z,1.75
2022-09-23T20:41:37.848Z,2.00
2022-09-23T20:44:07.757Z,1.70
2022-09-23T20:46:35.940Z,1.60
2022-09-23T20:49:03.937Z,1.75
2022-09-23T20:51:33.320Z,1.70
2022-09-23T20:54:01.101Z,1.83
2022-09-23T20:56:29.144Z,2.15
2022-09-23T20:59:00.539Z,1.67
2022-09-23T21:01:27.918Z,1.80
2022-09-23T21:03:56.009Z,1.60
2022-09-23T21:06:26.259Z,1.40
2022-09-23T21:08:54.675Z,1.40
2022-09-23T21:11:22.146Z,1.60
2022-09-23T21:13:51.347Z,1.70
2022-09-23T21:16:22.411Z,1.67
2022-09-23T21:18:50.510Z,1.60
2022-09-23T21:21:19.611Z,1.25
2022-09-23T21:23:47.720Z,1.20
2022-09-23T21:26:20.241Z,1.60
2022-09-23T21:28:50.195Z,1.45
2022-09-23T21:31:23.258Z,1.42
2022-09-23T21:33:54.071Z,1.42
2022-09-23T21:36:21.667Z,1.30
2022-09-23T21:38:48.800Z,1.27
2022-09-23T21:41:16.208Z,1.30
2022-09-23T21:43:43.541Z,1.40
2022-09-23T21:46:15.949Z,1.35
2022-09-23T21:48:43.314Z,1.25
2022-09-23T21:51:14.096Z,1.25
2022-09-23T21:53:42.276Z,1.10
2022-09-23T21:56:15.746Z,1.35
2022-09-23T21:58:45.856Z,1.27
2022-09-23T22:01:15.568Z,1.30
2022-09-23T22:03:44.141Z,1.80
2022-09-23T22:06:13.851Z,1.40
2022-09-23T22:08:42.652Z,1.30
2022-09-23T22:11:33.802Z,1.50
2022-09-23T22:14:02.813Z,1.70
2022-09-23T22:16:30.975Z,1.80
2022-09-23T22:19:00.619Z,2.10
2022-09-23T22:21:29.270Z,2.45
2022-09-23T22:24:01.102Z,2.15
2022-09-23T22:26:31.308Z,2.60
2022-09-23T22:29:16.894Z,2.58
2022-09-23T22:32:02.870Z,2.50
2022-09-23T22:34:49.036Z,2.45
2022-09-23T22:37:20.093Z,2.47
2022-09-23T22:39:47.454Z,2.08
2022-09-23T22:42:14.490Z,1.95
2022-09-23T22:44:41.717Z,1.98
2022-09-23T22:47:09.937Z,1.73
2022-09-23T22:49:36.979Z,1.65
2022-09-23T22:52:07.924Z,1.40
2022-09-23T22:54:35.844Z,1.40
2022-09-23T22:57:09.971Z,1.90
2022-09-23T22:59:37.682Z,1.65
2022-09-23T23:02:07.103Z,1.87
2022-09-23T23:04:34.469Z,1.48
2022-09-23T23:07:03.126Z,2.20
2022-09-23T23:09:30.115Z,1.30
2022-09-23T23:11:57.097Z,1.80
2022-09-23T23:14:25.761Z,1.83
2022-09-23T23:16:53.550Z,1.40
2022-09-23T23:19:20.628Z,1.77
2022-09-23T23:21:50.021Z,1.90
2022-09-23T23:24:21.975Z,1.77
2022-09-23T23:26:50.197Z,1.95
2022-09-23T23:29:18.992Z,1.70
2022-09-23T23:31:46.563Z,1.75
2022-09-23T23:34:16.650Z,1.77
2022-09-23T23:36:44.031Z,1.92
2022-09-23T23:39:12.072Z,1.90
2022-09-23T23:41:39.623Z,2.12
2022-09-23T23:44:07.809Z,1.77
2022-09-23T23:46:36.067Z,1.95
2022-09-23T23:49:04.642Z,1.90
2022-09-23T23:51:31.640Z,1.83
2022-09-23T23:53:59.678Z,1.70
2022-09-23T23:56:27.457Z,1.73
2022-09-23T23:58:59.319Z,1.60
